sensor_id;sensor_type;location;lat;lon;timestamp;pressure;altitude;pressure_sealevel;temperature;humidity
71145;BME280;58812;47.698;17.726;2023-07-28T00:02:08;99751.00;;;18.72;63.59
71145;BME280;58812;47.698;17.726;2023-07-28T00:04:34;99741.19;;;18.71;63.74
71145;BME280;58812;47.698;17.726;2023-07-28T00:07:00;99750.56;;;18.75;64.05
71145;BME280;58812;47.698;17.726;2023-07-28T00:09:26;99751.44;;;18.69;64.23
71145;BME280;58812;47.698;17.726;2023-07-28T00:11:51;99749.75;;;18.68;63.98
71145;BME280;58812;47.698;17.726;2023-07-28T00:14:17;99746.84;;;18.70;63.64
71145;BME280;58812;47.698;17.726;2023-07-28T00:16:43;99744.94;;;18.70;63.99
71145;BME280;58812;47.698;17.726;2023-07-28T00:19:08;99741.78;;;18.66;64.12
71145;BME280;58812;47.698;17.726;2023-07-28T00:21:33;99737.22;;;18.67;63.96
71145;BME280;58812;47.698;17.726;2023-07-28T00:23:59;99745.16;;;18.68;64.24
71145;BME280;58812;47.698;17.726;2023-07-28T00:26:24;99733.66;;;18.66;64.23
71145;BME280;58812;47.698;17.726;2023-07-28T00:28:50;99736.38;;;18.73;63.93
71145;BME280;58812;47.698;17.726;2023-07-28T00:31:15;99732.00;;;18.72;64.29
71145;BME280;58812;47.698;17.726;2023-07-28T00:33:41;99719.94;;;18.68;63.92
71145;BME280;58812;47.698;17.726;2023-07-28T00:36:07;99735.53;;;18.73;64.01
71145;BME280;58812;47.698;17.726;2023-07-28T00:38:32;99731.19;;;18.72;63.93
71145;BME280;58812;47.698;17.726;2023-07-28T00:40:58;99729.94;;;18.67;64.19
71145;BME280;58812;47.698;17.726;2023-07-28T00:43:23;99726.81;;;18.71;64.03
71145;BME280;58812;47.698;17.726;2023-07-28T00:45:49;99731.41;;;18.70;63.72
71145;BME280;58812;47.698;17.726;2023-07-28T00:48:15;99729.72;;;18.69;63.93
71145;BME280;58812;47.698;17.726;2023-07-28T00:50:44;99735.16;;;18.69;63.99
71145;BME280;58812;47.698;17.726;2023-07-28T00:53:10;99732.44;;;18.69;64.68
71145;BME280;58812;47.698;17.726;2023-07-28T00:55:37;99736.81;;;18.70;64.38
71145;BME280;58812;47.698;17.726;2023-07-28T00:58:03;99728.06;;;18.68;64.71
71145;BME280;58812;47.698;17.726;2023-07-28T01:00:28;99727.63;;;18.58;64.51
71145;BME280;58812;47.698;17.726;2023-07-28T01:02:54;99720.75;;;18.62;64.91
71145;BME280;58812;47.698;17.726;2023-07-28T01:05:24;99717.19;;;18.61;65.23
71145;BME280;58812;47.698;17.726;2023-07-28T01:07:56;99711.37;;;18.58;64.89
71145;BME280;58812;47.698;17.726;2023-07-28T01:10:28;99717.00;;;18.56;65.03
71145;BME280;58812;47.698;17.726;2023-07-28T01:12:55;99710.13;;;18.54;65.36
71145;BME280;58812;47.698;17.726;2023-07-28T01:15:20;99708.25;;;18.54;65.08
71145;BME280;58812;47.698;17.726;2023-07-28T01:17:46;99703.87;;;18.53;65.60
71145;BME280;58812;47.698;17.726;2023-07-28T01:20:11;99711.37;;;18.58;65.37
71145;BME280;58812;47.698;17.726;2023-07-28T01:27:43;99702.00;;;18.54;65.87
71145;BME280;58812;47.698;17.726;2023-07-28T01:30:12;99693.03;;;18.53;65.74
71145;BME280;58812;47.698;17.726;2023-07-28T01:32:37;99694.06;;;18.59;65.83
71145;BME280;58812;47.698;17.726;2023-07-28T01:35:03;99691.56;;;18.57;65.94
71145;BME280;58812;47.698;17.726;2023-07-28T01:37:29;99693.44;;;18.57;66.37
71145;BME280;58812;47.698;17.726;2023-07-28T01:39:55;99696.34;;;18.55;66.25
71145;BME280;58812;47.698;17.726;2023-07-28T01:42:20;99690.09;;;18.55;66.12
71145;BME280;58812;47.698;17.726;2023-07-28T01:44:46;99678.03;;;18.51;66.63
71145;BME280;58812;47.698;17.726;2023-07-28T01:47:11;99689.25;;;18.54;66.53
71145;BME280;58812;47.698;17.726;2023-07-28T01:49:36;99686.34;;;18.56;66.37
71145;BME280;58812;47.698;17.726;2023-07-28T01:52:02;99689.69;;;18.58;66.77
71145;BME280;58812;47.698;17.726;2023-07-28T01:54:28;99682.59;;;18.57;66.63
71145;BME280;58812;47.698;17.726;2023-07-28T01:56:53;99698.44;;;18.53;67.37
71145;BME280;58812;47.698;17.726;2023-07-28T01:59:18;99698.88;;;18.50;67.05
71145;BME280;58812;47.698;17.726;2023-07-28T02:01:45;99697.63;;;18.53;67.02
71145;BME280;58812;47.698;17.726;2023-07-28T02:04:11;99702.22;;;18.52;67.20
71145;BME280;58812;47.698;17.726;2023-07-28T02:06:36;99707.03;;;18.50;67.37
71145;BME280;58812;47.698;17.726;2023-07-28T02:09:02;99702.59;;;18.56;67.44
71145;BME280;58812;47.698;17.726;2023-07-28T02:11:27;99712.63;;;18.49;67.60
71145;BME280;58812;47.698;17.726;2023-07-28T02:13:53;99699.06;;;18.49;67.83
71145;BME280;58812;47.698;17.726;2023-07-28T02:16:18;99694.72;;;18.48;67.83
71145;BME280;58812;47.698;17.726;2023-07-28T02:18:43;99698.25;;;18.48;67.79
71145;BME280;58812;47.698;17.726;2023-07-28T02:21:09;99700.53;;;18.51;67.97
71145;BME280;58812;47.698;17.726;2023-07-28T02:23:34;99707.62;;;18.52;67.85
71145;BME280;58812;47.698;17.726;2023-07-28T02:26:00;99704.69;;;18.54;68.35
71145;BME280;58812;47.698;17.726;2023-07-28T02:28:25;99709.28;;;18.60;67.87
71145;BME280;58812;47.698;17.726;2023-07-28T02:30:51;99711.97;;;18.60;67.94
71145;BME280;58812;47.698;17.726;2023-07-28T02:33:16;99709.50;;;18.52;68.36
71145;BME280;58812;47.698;17.726;2023-07-28T02:35:41;99713.44;;;18.56;68.42
71145;BME280;58812;47.698;17.726;2023-07-28T02:38:07;99712.00;;;18.47;68.49
71145;BME280;58812;47.698;17.726;2023-07-28T02:40:33;99713.06;;;18.46;68.95
71145;BME280;58812;47.698;17.726;2023-07-28T02:42:59;99711.41;;;18.45;69.10
71145;BME280;58812;47.698;17.726;2023-07-28T02:45:24;99717.44;;;18.40;69.42
71145;BME280;58812;47.698;17.726;2023-07-28T02:47:50;99722.66;;;18.35;69.71
71145;BME280;58812;47.698;17.726;2023-07-28T02:50:16;99716.41;;;18.34;69.35
71145;BME280;58812;47.698;17.726;2023-07-28T02:52:41;99712.25;;;18.25;70.04
71145;BME280;58812;47.698;17.726;2023-07-28T02:55:07;99716.44;;;18.21;70.21
71145;BME280;58812;47.698;17.726;2023-07-28T02:57:32;99709.53;;;18.19;70.79
71145;BME280;58812;47.698;17.726;2023-07-28T02:59:58;99714.34;;;18.23;70.57
71145;BME280;58812;47.698;17.726;2023-07-28T03:02:23;99716.63;;;18.20;70.95
71145;BME280;58812;47.698;17.726;2023-07-28T03:04:49;99706.84;;;18.12;70.91
71145;BME280;58812;47.698;17.726;2023-07-28T03:07:15;99718.94;;;18.16;70.63
71145;BME280;58812;47.698;17.726;2023-07-28T03:09:40;99714.13;;;18.18;70.79
71145;BME280;58812;47.698;17.726;2023-07-28T03:12:06;99704.75;;;18.14;71.10
71145;BME280;58812;47.698;17.726;2023-07-28T03:14:32;99701.84;;;18.09;71.71
71145;BME280;58812;47.698;17.726;2023-07-28T03:16:57;99704.34;;;18.04;71.86
71145;BME280;58812;47.698;17.726;2023-07-28T03:19:23;99699.78;;;18.04;71.91
71145;BME280;58812;47.698;17.726;2023-07-28T03:21:48;99695.59;;;18.02;72.05
71145;BME280;58812;47.698;17.726;2023-07-28T03:24:14;99692.69;;;17.97;72.32
71145;BME280;58812;47.698;17.726;2023-07-28T03:26:39;99692.69;;;17.97;72.54
71145;BME280;58812;47.698;17.726;2023-07-28T03:29:04;99693.72;;;17.96;72.65
71145;BME280;58812;47.698;17.726;2023-07-28T03:31:30;99693.09;;;17.94;72.73
71145;BME280;58812;47.698;17.726;2023-07-28T03:33:55;99689.13;;;17.89;73.25
71145;BME280;58812;47.698;17.726;2023-07-28T03:36:21;99694.75;;;17.95;73.07
71145;BME280;58812;47.698;17.726;2023-07-28T03:38:46;99702.66;;;17.89;73.27
71145;BME280;58812;47.698;17.726;2023-07-28T03:41:12;99696.41;;;17.82;73.34
71145;BME280;58812;47.698;17.726;2023-07-28T03:43:38;99697.03;;;17.84;73.55
71145;BME280;58812;47.698;17.726;2023-07-28T03:46:03;99694.34;;;17.84;73.49
71145;BME280;58812;47.698;17.726;2023-07-28T03:48:29;99689.78;;;17.85;73.50
71145;BME280;58812;47.698;17.726;2023-07-28T03:50:54;99688.50;;;17.81;74.01
71145;BME280;58812;47.698;17.726;2023-07-28T03:53:20;99689.13;;;17.76;74.00
71145;BME280;58812;47.698;17.726;2023-07-28T03:55:45;99691.59;;;17.71;74.26
71145;BME280;58812;47.698;17.726;2023-07-28T03:58:11;99698.88;;;17.71;74.59
71145;BME280;58812;47.698;17.726;2023-07-28T04:00:36;99711.84;;;17.75;74.40
71145;BME280;58812;47.698;17.726;2023-07-28T04:03:01;99702.00;;;17.68;74.91
71145;BME280;58812;47.698;17.726;2023-07-28T04:05:27;99702.66;;;17.76;74.31
71145;BME280;58812;47.698;17.726;2023-07-28T04:07:52;99698.09;;;17.83;74.01
71145;BME280;58812;47.698;17.726;2023-07-28T04:10:18;99697.91;;;17.85;74.18
71145;BME280;58812;47.698;17.726;2023-07-28T04:12:43;99706.44;;;17.88;74.16
71145;BME280;58812;47.698;17.726;2023-07-28T04:15:09;99689.78;;;17.92;73.44
71145;BME280;58812;47.698;17.726;2023-07-28T04:17:35;99687.69;;;18.00;72.90
71145;BME280;58812;47.698;17.726;2023-07-28T04:20:00;99695.59;;;18.02;72.89
71145;BME280;58812;47.698;17.726;2023-07-28T04:22:27;99690.59;;;18.05;72.96
71145;BME280;58812;47.698;17.726;2023-07-28T04:24:53;99686.66;;;18.14;72.59
71145;BME280;58812;47.698;17.726;2023-07-28T04:27:19;99686.44;;;18.16;71.92
71145;BME280;58812;47.698;17.726;2023-07-28T04:29:44;99675.38;;;18.11;72.12
71145;BME280;58812;47.698;17.726;2023-07-28T04:32:10;99680.37;;;18.14;72.56
71145;BME280;58812;47.698;17.726;2023-07-28T04:34:36;99682.22;;;18.20;72.23
71145;BME280;58812;47.698;17.726;2023-07-28T04:37:01;99665.97;;;18.20;72.13
71145;BME280;58812;47.698;17.726;2023-07-28T04:39:27;99671.81;;;18.24;72.45
71145;BME280;58812;47.698;17.726;2023-07-28T04:41:52;99669.72;;;18.26;72.51
71145;BME280;58812;47.698;17.726;2023-07-28T04:44:18;99673.06;;;18.34;72.16
71145;BME280;58812;47.698;17.726;2023-07-28T04:46:44;99678.47;;;18.34;71.90
71145;BME280;58812;47.698;17.726;2023-07-28T04:49:13;99672.22;;;18.40;71.32
71145;BME280;58812;47.698;17.726;2023-07-28T04:51:38;99678.69;;;18.39;71.19
71145;BME280;58812;47.698;17.726;2023-07-28T04:54:03;99669.47;;;18.54;71.00
71145;BME280;58812;47.698;17.726;2023-07-28T04:56:29;99667.56;;;18.54;70.65
71145;BME280;58812;47.698;17.726;2023-07-28T04:58:54;99683.84;;;18.54;71.32
71145;BME280;58812;47.698;17.726;2023-07-28T05:01:19;99685.72;;;18.54;71.75
71145;BME280;58812;47.698;17.726;2023-07-28T05:03:45;99688.03;;;18.57;71.31
71145;BME280;58812;47.698;17.726;2023-07-28T05:06:10;99693.44;;;18.70;71.00
71145;BME280;58812;47.698;17.726;2023-07-28T05:08:36;99699.25;;;18.60;70.85
71145;BME280;58812;47.698;17.726;2023-07-28T05:11:01;99704.69;;;18.67;71.60
71145;BME280;58812;47.698;17.726;2023-07-28T05:13:27;99701.78;;;18.62;71.32
71145;BME280;58812;47.698;17.726;2023-07-28T05:15:52;99709.69;;;18.63;71.31
71145;BME280;58812;47.698;17.726;2023-07-28T05:18:17;99705.94;;;18.58;69.90
71145;BME280;58812;47.698;17.726;2023-07-28T05:20:43;99708.47;;;18.53;70.35
71145;BME280;58812;47.698;17.726;2023-07-28T05:23:08;99696.81;;;18.46;69.41
71145;BME280;58812;47.698;17.726;2023-07-28T05:25:34;99688.03;;;18.50;69.57
71145;BME280;58812;47.698;17.726;2023-07-28T05:27:59;99695.53;;;18.48;70.39
71145;BME280;58812;47.698;17.726;2023-07-28T05:30:24;99709.09;;;18.48;71.24
71145;BME280;58812;47.698;17.726;2023-07-28T05:32:50;99712.25;;;18.45;70.28
71145;BME280;58812;47.698;17.726;2023-07-28T05:35:15;99711.37;;;18.58;70.21
71145;BME280;58812;47.698;17.726;2023-07-28T05:37:41;99711.56;;;18.50;70.19
71145;BME280;58812;47.698;17.726;2023-07-28T05:40:07;99712.44;;;18.57;69.66
71145;BME280;58812;47.698;17.726;2023-07-28T05:42:32;99719.31;;;18.53;69.63
71145;BME280;58812;47.698;17.726;2023-07-28T05:44:59;99710.94;;;18.61;69.08
71145;BME280;58812;47.698;17.726;2023-07-28T05:47:24;99709.72;;;18.57;69.29
71145;BME280;58812;47.698;17.726;2023-07-28T05:49:51;99709.28;;;18.60;69.25
71145;BME280;58812;47.698;17.726;2023-07-28T05:52:19;99725.13;;;18.63;69.78
71145;BME280;58812;47.698;17.726;2023-07-28T05:54:44;99719.25;;;18.66;69.48
71145;BME280;58812;47.698;17.726;2023-07-28T05:57:10;99713.47;;;18.69;69.26
71145;BME280;58812;47.698;17.726;2023-07-28T05:59:35;99713.03;;;18.72;69.11
71145;BME280;58812;47.698;17.726;2023-07-28T06:02:01;99699.25;;;18.80;68.59
71145;BME280;58812;47.698;17.726;2023-07-28T06:04:26;99703.84;;;18.80;68.60
71145;BME280;58812;47.698;17.726;2023-07-28T06:06:51;99704.66;;;18.87;68.01
71145;BME280;58812;47.698;17.726;2023-07-28T06:09:17;99705.19;;;19.02;68.24
71145;BME280;58812;47.698;17.726;2023-07-28T06:11:42;99717.06;;;19.08;69.09
71145;BME280;58812;47.698;17.726;2023-07-28T06:14:08;99711.59;;;19.14;69.23
71145;BME280;58812;47.698;17.726;2023-07-28T06:16:33;99706.84;;;19.10;68.29
71145;BME280;58812;47.698;17.726;2023-07-28T06:18:58;99702.28;;;19.04;68.82
71145;BME280;58812;47.698;17.726;2023-07-28T06:21:24;99711.66;;;19.08;68.89
71145;BME280;58812;47.698;17.726;2023-07-28T06:23:49;99698.91;;;19.08;68.65
71145;BME280;58812;47.698;17.726;2023-07-28T06:26:15;99699.66;;;19.29;68.45
71145;BME280;58812;47.698;17.726;2023-07-28T06:28:40;99696.91;;;19.35;67.98
71145;BME280;58812;47.698;17.726;2023-07-28T06:31:06;99689.72;;;19.47;66.71
71145;BME280;58812;47.698;17.726;2023-07-28T06:33:31;99688.25;;;19.83;66.66
71145;BME280;58812;47.698;17.726;2023-07-28T06:35:57;99691.78;;;19.59;65.72
71145;BME280;58812;47.698;17.726;2023-07-28T06:38:22;99690.63;;;19.73;65.60
71145;BME280;58812;47.698;17.726;2023-07-28T06:40:48;99697.13;;;19.72;65.79
71145;BME280;58812;47.698;17.726;2023-07-28T06:43:13;99700.31;;;19.62;65.71
71145;BME280;58812;47.698;17.726;2023-07-28T06:45:39;99702.50;;;19.79;65.63
71145;BME280;58812;47.698;17.726;2023-07-28T06:48:04;99707.16;;;19.71;65.09
71145;BME280;58812;47.698;17.726;2023-07-28T06:50:30;99700.09;;;19.64;64.85
71145;BME280;58812;47.698;17.726;2023-07-28T06:52:55;99710.16;;;19.88;65.04
71145;BME280;58812;47.698;17.726;2023-07-28T06:55:21;99713.81;;;20.00;65.40
71145;BME280;58812;47.698;17.726;2023-07-28T06:57:47;99723.22;;;20.05;64.46
71145;BME280;58812;47.698;17.726;2023-07-28T07:00:13;99729.19;;;19.88;63.47
71145;BME280;58812;47.698;17.726;2023-07-28T07:02:40;99728.75;;;20.16;63.95
71145;BME280;58812;47.698;17.726;2023-07-28T07:05:05;99717.25;;;20.14;64.44
71145;BME280;58812;47.698;17.726;2023-07-28T07:07:32;99717.81;;;20.23;64.38
71145;BME280;58812;47.698;17.726;2023-07-28T07:09:57;99713.97;;;20.74;62.98
71145;BME280;58812;47.698;17.726;2023-07-28T07:12:23;99706.28;;;20.89;62.36
71145;BME280;58812;47.698;17.726;2023-07-28T07:14:48;99704.09;;;20.79;62.54
71145;BME280;58812;47.698;17.726;2023-07-28T07:17:14;99696.63;;;20.93;63.61
71145;BME280;58812;47.698;17.726;2023-07-28T07:19:39;99709.16;;;22.15;58.89
71145;BME280;58812;47.698;17.726;2023-07-28T07:22:05;99708.41;;;23.01;55.82
71145;BME280;58812;47.698;17.726;2023-07-28T07:24:31;99713.50;;;22.86;56.19
71145;BME280;58812;47.698;17.726;2023-07-28T07:26:56;99712.50;;;23.15;53.25
71145;BME280;58812;47.698;17.726;2023-07-28T07:29:22;99708.19;;;22.79;52.91
71145;BME280;58812;47.698;17.726;2023-07-28T07:31:47;99712.81;;;23.31;51.89
71145;BME280;58812;47.698;17.726;2023-07-28T07:34:13;99713.56;;;24.17;51.04
71145;BME280;58812;47.698;17.726;2023-07-28T07:36:39;99705.81;;;23.63;51.62
71145;BME280;58812;47.698;17.726;2023-07-28T07:39:05;99714.38;;;24.17;50.71
71145;BME280;58812;47.698;17.726;2023-07-28T07:41:30;99708.97;;;23.43;52.79
71145;BME280;58812;47.698;17.726;2023-07-28T07:43:56;99705.78;;;23.35;53.08
71145;BME280;58812;47.698;17.726;2023-07-28T07:46:22;99706.66;;;23.52;52.29
71145;BME280;58812;47.698;17.726;2023-07-28T07:48:48;99702.63;;;24.72;50.49
71145;BME280;58812;47.698;17.726;2023-07-28T07:51:14;99706.53;;;24.38;51.16
71145;BME280;58812;47.698;17.726;2023-07-28T07:53:39;99711.31;;;23.97;51.78
71145;BME280;58812;47.698;17.726;2023-07-28T07:56:06;99712.72;;;24.16;51.23
71145;BME280;58812;47.698;17.726;2023-07-28T07:58:32;99717.38;;;23.99;52.01
71145;BME280;58812;47.698;17.726;2023-07-28T08:00:58;99698.56;;;24.36;50.40
71145;BME280;58812;47.698;17.726;2023-07-28T08:03:24;99702.75;;;24.61;51.36
71145;BME280;58812;47.698;17.726;2023-07-28T08:05:50;99694.38;;;25.60;49.81
71145;BME280;58812;47.698;17.726;2023-07-28T08:08:16;99702.53;;;25.55;50.59
71145;BME280;58812;47.698;17.726;2023-07-28T08:10:43;99708.44;;;25.42;49.86
71145;BME280;58812;47.698;17.726;2023-07-28T08:13:09;99703.87;;;24.82;50.12
71145;BME280;58812;47.698;17.726;2023-07-28T08:15:34;99701.19;;;24.87;49.36
71145;BME280;58812;47.698;17.726;2023-07-28T08:18:00;99698.53;;;24.92;50.88
71145;BME280;58812;47.698;17.726;2023-07-28T08:20:25;99703.78;;;25.42;49.50
71145;BME280;58812;47.698;17.726;2023-07-28T08:22:51;99703.37;;;24.85;48.55
71145;BME280;58812;47.698;17.726;2023-07-28T08:25:16;99707.88;;;24.74;48.54
71145;BME280;58812;47.698;17.726;2023-07-28T08:27:42;99710.53;;;24.69;49.13
71145;BME280;58812;47.698;17.726;2023-07-28T08:30:08;99709.44;;;25.09;48.69
71145;BME280;58812;47.698;17.726;2023-07-28T08:32:34;99698.41;;;25.25;48.70
71145;BME280;58812;47.698;17.726;2023-07-28T08:35:00;99714.84;;;25.25;47.96
71145;BME280;58812;47.698;17.726;2023-07-28T08:37:25;99705.84;;;25.08;49.06
71145;BME280;58812;47.698;17.726;2023-07-28T08:39:50;99708.34;;;25.58;48.53
71145;BME280;58812;47.698;17.726;2023-07-28T08:42:16;99702.38;;;25.89;47.94
71145;BME280;58812;47.698;17.726;2023-07-28T08:44:41;99714.97;;;25.90;47.64
71145;BME280;58812;47.698;17.726;2023-07-28T08:47:07;99716.31;;;25.60;48.82
71145;BME280;58812;47.698;17.726;2023-07-28T08:49:33;99701.81;;;26.24;48.61
71145;BME280;58812;47.698;17.726;2023-07-28T08:52:01;99697.06;;;26.09;46.45
71145;BME280;58812;47.698;17.726;2023-07-28T08:54:27;99705.34;;;25.60;47.33
71145;BME280;58812;47.698;17.726;2023-07-28T08:56:53;99704.81;;;25.36;48.96
71145;BME280;58812;47.698;17.726;2023-07-28T08:59:27;99704.03;;;25.63;48.17
71145;BME280;58812;47.698;17.726;2023-07-28T09:01:53;99696.87;;;25.89;48.06
71145;BME280;58812;47.698;17.726;2023-07-28T09:04:20;99699.06;;;26.24;47.71
71145;BME280;58812;47.698;17.726;2023-07-28T09:06:47;99705.06;;;26.21;48.65
71145;BME280;58812;47.698;17.726;2023-07-28T09:09:18;99697.28;;;26.40;48.26
71145;BME280;58812;47.698;17.726;2023-07-28T09:11:47;99693.88;;;26.22;49.69
71145;BME280;58812;47.698;17.726;2023-07-28T09:14:14;99693.53;;;25.81;48.57
71145;BME280;58812;47.698;17.726;2023-07-28T09:16:41;99698.09;;;26.03;47.73
71145;BME280;58812;47.698;17.726;2023-07-28T09:19:08;99689.97;;;26.18;48.14
71145;BME280;58812;47.698;17.726;2023-07-28T09:21:34;99698.19;;;26.50;45.22
71145;BME280;58812;47.698;17.726;2023-07-28T09:24:00;99695.06;;;27.52;44.93
71145;BME280;58812;47.698;17.726;2023-07-28T09:26:38;99686.81;;;25.99;44.00
71145;BME280;58812;47.698;17.726;2023-07-28T09:29:17;99685.94;;;25.94;45.11
71145;BME280;58812;47.698;17.726;2023-07-28T09:31:49;99679.78;;;25.76;45.87
71145;BME280;58812;47.698;17.726;2023-07-28T09:34:26;99682.16;;;26.00;46.59
71145;BME280;58812;47.698;17.726;2023-07-28T09:36:58;99683.41;;;25.60;46.88
71145;BME280;58812;47.698;17.726;2023-07-28T09:39:25;99691.72;;;26.29;46.79
71145;BME280;58812;47.698;17.726;2023-07-28T09:41:51;99694.81;;;26.90;46.31
71145;BME280;58812;47.698;17.726;2023-07-28T09:44:16;99690.88;;;26.66;44.84
71145;BME280;58812;47.698;17.726;2023-07-28T09:46:50;99695.97;;;26.95;46.74
71145;BME280;58812;47.698;17.726;2023-07-28T09:49:21;99704.13;;;26.84;45.89
71145;BME280;58812;47.698;17.726;2023-07-28T09:51:48;99705.81;;;27.63;46.13
71145;BME280;58812;47.698;17.726;2023-07-28T09:54:28;99699.75;;;26.83;46.92
71145;BME280;58812;47.698;17.726;2023-07-28T09:56:59;99696.91;;;26.63;47.00
71145;BME280;58812;47.698;17.726;2023-07-28T09:59:38;99690.72;;;26.41;46.16
71145;BME280;58812;47.698;17.726;2023-07-28T10:02:04;99684.56;;;27.23;45.25
71145;BME280;58812;47.698;17.726;2023-07-28T10:04:31;99692.84;;;27.49;45.60
71145;BME280;58812;47.698;17.726;2023-07-28T10:06:57;99694.72;;;27.33;46.85
71145;BME280;58812;47.698;17.726;2023-07-28T10:09:27;99686.56;;;26.80;46.21
71145;BME280;58812;47.698;17.726;2023-07-28T10:11:54;99697.34;;;27.02;47.45
71145;BME280;58812;47.698;17.726;2023-07-28T10:14:38;99693.28;;;26.52;45.67
71145;BME280;58812;47.698;17.726;2023-07-28T10:17:05;99702.50;;;27.61;45.00
71145;BME280;58812;47.698;17.726;2023-07-28T10:19:35;99698.66;;;27.52;44.80
71145;BME280;58812;47.698;17.726;2023-07-28T10:22:09;99697.88;;;28.03;46.88
71145;BME280;58812;47.698;17.726;2023-07-28T10:27:37;99703.94;;;28.20;45.94
71145;BME280;58812;47.698;17.726;2023-07-28T10:30:08;99697.53;;;26.85;47.44
71145;BME280;58812;47.698;17.726;2023-07-28T10:32:42;99703.66;;;27.76;44.74
71145;BME280;58812;47.698;17.726;2023-07-28T10:37:36;99698.06;;;27.40;46.61
71145;BME280;58812;47.698;17.726;2023-07-28T10:40:35;99707.25;;;28.12;44.25
71145;BME280;58812;47.698;17.726;2023-07-28T10:43:02;99704.75;;;28.51;44.13
71145;BME280;58812;47.698;17.726;2023-07-28T10:45:30;99702.72;;;28.92;45.42
71145;BME280;58812;47.698;17.726;2023-07-28T10:47:57;99707.81;;;28.29;44.65
71145;BME280;58812;47.698;17.726;2023-07-28T10:50:29;99699.25;;;27.70;45.35
71145;BME280;58812;47.698;17.726;2023-07-28T10:52:56;99702.22;;;27.68;45.73
71145;BME280;58812;47.698;17.726;2023-07-28T10:55:28;99700.09;;;28.36;45.63
71145;BME280;58812;47.698;17.726;2023-07-28T10:57:54;99702.56;;;28.43;46.33
71145;BME280;58812;47.698;17.726;2023-07-28T11:00:21;99697.88;;;28.28;46.54
71145;BME280;58812;47.698;17.726;2023-07-28T11:02:50;99695.84;;;29.00;44.59
71145;BME280;58812;47.698;17.726;2023-07-28T11:05:28;99702.00;;;28.46;46.00
71145;BME280;58812;47.698;17.726;2023-07-28T11:08:02;99701.19;;;28.30;45.92
71145;BME280;58812;47.698;17.726;2023-07-28T11:10:29;99700.09;;;28.36;45.15
71145;BME280;58812;47.698;17.726;2023-07-28T11:12:57;99704.72;;;28.71;44.13
71145;BME280;58812;47.698;17.726;2023-07-28T11:15:24;99702.56;;;28.12;45.09
71145;BME280;58812;47.698;17.726;2023-07-28T11:17:51;99692.91;;;28.51;45.77
71145;BME280;58812;47.698;17.726;2023-07-28T11:20:23;99693.22;;;28.18;45.49
71145;BME280;58812;47.698;17.726;2023-07-28T11:22:53;99683.91;;;29.15;44.83
71145;BME280;58812;47.698;17.726;2023-07-28T11:25:19;99675.78;;;28.64;45.40
71145;BME280;58812;47.698;17.726;2023-07-28T11:27:46;99682.59;;;29.02;46.59
71145;BME280;58812;47.698;17.726;2023-07-28T11:30:13;99680.75;;;29.37;44.01
71145;BME280;58812;47.698;17.726;2023-07-28T11:32:39;99687.31;;;29.46;43.29
71145;BME280;58812;47.698;17.726;2023-07-28T11:35:09;99684.66;;;29.75;42.37
71145;BME280;58812;47.698;17.726;2023-07-28T11:37:37;99685.66;;;28.85;43.90
71145;BME280;58812;47.698;17.726;2023-07-28T11:40:04;99680.63;;;29.13;43.01
71145;BME280;58812;47.698;17.726;2023-07-28T11:42:37;99679.72;;;28.42;44.82
71145;BME280;58812;47.698;17.726;2023-07-28T11:45:04;99679.69;;;28.22;44.68
71145;BME280;58812;47.698;17.726;2023-07-28T11:47:30;99687.41;;;28.30;45.48
71145;BME280;58812;47.698;17.726;2023-07-28T11:49:56;99681.37;;;27.98;46.46
71145;BME280;58812;47.698;17.726;2023-07-28T11:52:30;99690.75;;;28.32;46.14
71145;BME280;58812;47.698;17.726;2023-07-28T11:54:56;99685.16;;;27.51;46.38
71145;BME280;58812;47.698;17.726;2023-07-28T11:57:24;99704.44;;;27.61;46.98
71145;BME280;58812;47.698;17.726;2023-07-28T11:59:50;99712.91;;;27.34;48.22
71145;BME280;58812;47.698;17.726;2023-07-28T12:02:24;99717.63;;;27.59;48.69
71145;BME280;58812;47.698;17.726;2023-07-28T12:04:50;99724.28;;;27.73;49.61
71145;BME280;58812;47.698;17.726;2023-07-28T12:07:18;99706.53;;;27.23;50.52
71145;BME280;58812;47.698;17.726;2023-07-28T12:12:23;99703.50;;;26.67;55.34
71145;BME280;58812;47.698;17.726;2023-07-28T12:14:50;99700.25;;;26.38;58.22
71145;BME280;58812;47.698;17.726;2023-07-28T12:17:21;99699.78;;;26.41;55.94
71145;BME280;58812;47.698;17.726;2023-07-28T12:20:01;99703.53;;;26.72;55.53
71145;BME280;58812;47.698;17.726;2023-07-28T12:22:31;99700.88;;;26.08;57.49
71145;BME280;58812;47.698;17.726;2023-07-28T12:24:57;99686.31;;;26.07;56.38
71145;BME280;58812;47.698;17.726;2023-07-28T12:27:22;99677.81;;;26.04;56.56
71145;BME280;58812;47.698;17.726;2023-07-28T12:29:52;99679.19;;;26.06;55.87
71145;BME280;58812;47.698;17.726;2023-07-28T12:32:18;99671.19;;;26.00;55.33
71145;BME280;58812;47.698;17.726;2023-07-28T12:34:43;99660.44;;;26.30;55.63
71145;BME280;58812;47.698;17.726;2023-07-28T12:37:08;99662.88;;;26.69;55.68
71145;BME280;58812;47.698;17.726;2023-07-28T12:39:38;99654.31;;;26.60;55.05
71145;BME280;58812;47.698;17.726;2023-07-28T12:42:10;99654.88;;;26.20;56.03
71145;BME280;58812;47.698;17.726;2023-07-28T12:44:39;99652.75;;;26.32;54.68
71145;BME280;58812;47.698;17.726;2023-07-28T12:47:05;99649.06;;;26.54;54.37
71145;BME280;58812;47.698;17.726;2023-07-28T12:49:31;99654.19;;;26.87;53.11
71145;BME280;58812;47.698;17.726;2023-07-28T12:51:58;99651.19;;;26.99;52.41
71145;BME280;58812;47.698;17.726;2023-07-28T12:54:24;99646.53;;;27.00;53.62
71145;BME280;58812;47.698;17.726;2023-07-28T12:56:50;99655.97;;;27.24;54.77
71145;BME280;58812;47.698;17.726;2023-07-28T12:59:16;99655.75;;;27.66;53.83
71145;BME280;58812;47.698;17.726;2023-07-28T13:01:41;99654.69;;;27.73;53.60